createdAt,value
2017-03-22T00:00:36.731Z,59.21
2017-03-22T00:01:37.336Z,59.11
2017-03-22T00:02:37.943Z,59.30
2017-03-22T00:03:38.551Z,59.30
2017-03-22T00:04:39.162Z,59.11
2017-03-22T00:05:39.773Z,59.40
2017-03-22T00:06:40.378Z,59.11
2017-03-22T00:07:40.986Z,59.40
2017-03-22T00:08:41.593Z,59.40
2017-03-22T00:09:42.207Z,59.30
2017-03-22T00:10:42.812Z,59.11
2017-03-22T00:11:43.420Z,59.21
2017-03-22T00:12:44.030Z,59.30
2017-03-22T00:13:44.638Z,59.11
2017-03-22T00:14:45.252Z,59.40
2017-03-22T00:15:45.856Z,59.59
2017-03-22T00:16:46.471Z,59.97
2017-03-22T00:17:47.072Z,59.68
2017-03-22T00:18:47.685Z,59.88
2017-03-22T00:19:48.290Z,59.59
2017-03-22T00:20:48.897Z,60.06
2017-03-22T00:21:49.505Z,59.68
2017-03-22T00:22:50.113Z,59.49
2017-03-22T00:23:50.721Z,59.78
2017-03-22T00:24:51.327Z,59.88
2017-03-22T00:25:51.934Z,59.88
2017-03-22T00:26:52.541Z,59.68
2017-03-22T00:27:53.147Z,59.88
2017-03-22T00:28:53.760Z,59.97
2017-03-22T00:29:54.373Z,59.97
2017-03-22T00:30:54.973Z,60.25
2017-03-22T00:31:55.581Z,59.88
2017-03-22T00:32:56.189Z,59.88
2017-03-22T00:33:56.800Z,60.16
2017-03-22T00:34:57.411Z,60.35
2017-03-22T00:35:58.014Z,60.89
2017-03-22T00:36:58.623Z,60.79
2017-03-22T00:37:59.237Z,60.60
2017-03-22T00:38:59.843Z,61.01
2017-03-22T00:40:00.452Z,60.60
2017-03-22T00:41:01.059Z,60.98
2017-03-22T00:42:01.666Z,61.27
2017-03-22T00:43:02.273Z,60.82
2017-03-22T00:44:02.880Z,61.17
2017-03-22T00:45:03.493Z,61.20
2017-03-22T00:46:04.097Z,61.55
2017-03-22T00:47:04.705Z,61.55
2017-03-22T00:48:05.318Z,61.20
2017-03-22T00:49:05.920Z,61.20
2017-03-22T00:50:06.528Z,61.39
2017-03-22T00:51:07.135Z,61.08
2017-03-22T00:52:07.744Z,61.27
2017-03-22T00:53:08.351Z,61.27
2017-03-22T00:54:08.956Z,61.27
2017-03-22T00:55:09.569Z,61.46
2017-03-22T00:56:10.171Z,62.02
2017-03-22T00:57:10.779Z,61.93
2017-03-22T00:58:11.386Z,62.40
2017-03-22T00:59:11.991Z,62.31
2017-03-22T01:00:12.598Z,62.50
2017-03-22T01:01:13.205Z,62.50
2017-03-22T01:02:13.812Z,62.40
2017-03-22T01:03:14.419Z,62.88
2017-03-22T01:04:15.025Z,62.78
2017-03-22T01:05:15.636Z,62.78
2017-03-22T01:06:16.240Z,62.78
2017-03-22T01:07:16.853Z,62.78
2017-03-22T01:08:17.459Z,62.88
2017-03-22T01:09:18.062Z,62.88
2017-03-22T01:10:18.668Z,62.88
2017-03-22T01:11:19.274Z,62.59
2017-03-22T01:12:19.880Z,62.88
2017-03-22T01:13:20.489Z,62.78
2017-03-22T01:14:21.096Z,63.26
2017-03-22T01:15:21.705Z,63.26
2017-03-22T01:16:22.314Z,63.35
2017-03-22T01:17:22.922Z,63.64
2017-03-22T01:18:23.531Z,63.64
2017-03-22T01:19:24.138Z,63.07
2017-03-22T01:20:24.746Z,63.73
2017-03-22T01:21:25.352Z,63.82
2017-03-22T01:22:25.964Z,63.54
2017-03-22T01:23:26.566Z,63.54
2017-03-22T01:24:27.179Z,63.54
2017-03-22T01:25:27.789Z,63.82
2017-03-22T01:26:28.394Z,63.73
2017-03-22T01:27:29.006Z,63.54
2017-03-22T01:28:29.615Z,63.73
2017-03-22T01:29:30.251Z,63.73
2017-03-22T01:30:30.857Z,63.92
2017-03-22T01:31:31.465Z,63.73
2017-03-22T01:32:32.074Z,64.49
2017-03-22T01:33:32.680Z,64.30
2017-03-22T01:34:33.286Z,64.40
2017-03-22T01:35:33.893Z,64.49
2017-03-22T01:36:34.504Z,63.89
2017-03-22T01:37:35.107Z,63.73
2017-03-22T01:38:35.719Z,63.98
2017-03-22T01:39:36.331Z,64.46
2017-03-22T01:40:36.968Z,63.98
2017-03-22T01:41:37.572Z,64.36
2017-03-22T01:42:38.178Z,64.55
2017-03-22T01:43:38.785Z,64.27
2017-03-22T01:44:39.396Z,64.84
2017-03-22T01:45:39.999Z,64.93
2017-03-22T01:46:40.605Z,64.55
2017-03-22T01:47:41.211Z,64.84
2017-03-22T01:48:41.823Z,64.84
2017-03-22T01:49:42.426Z,65.12
2017-03-22T01:50:43.035Z,65.22
2017-03-22T01:51:43.642Z,64.74
2017-03-22T01:52:44.256Z,64.84
2017-03-22T01:53:44.861Z,65.03
2017-03-22T01:54:45.469Z,65.31
2017-03-22T01:55:46.073Z,65.22
2017-03-22T01:56:46.681Z,65.31
2017-03-22T01:57:47.287Z,65.31
2017-03-22T01:58:47.894Z,65.31
2017-03-22T01:59:48.499Z,65.03
2017-03-22T02:00:49.105Z,65.50
2017-03-22T02:01:49.713Z,65.41
2017-03-22T02:02:50.317Z,65.41
2017-03-22T02:03:50.922Z,65.41
2017-03-22T02:04:51.529Z,65.50
2017-03-22T02:05:52.135Z,65.22
2017-03-22T02:06:52.742Z,65.41
2017-03-22T02:07:53.380Z,65.31
2017-03-22T02:08:53.987Z,65.22
2017-03-22T02:09:54.595Z,65.31
2017-03-22T02:10:55.201Z,65.31
2017-03-22T02:11:55.811Z,65.78
2017-03-22T02:12:56.421Z,65.78
2017-03-22T02:13:57.025Z,65.59
2017-03-22T02:14:57.635Z,65.78
2017-03-22T02:15:58.239Z,65.78
2017-03-22T02:16:58.846Z,65.41
2017-03-22T02:17:59.453Z,65.22
2017-03-22T02:19:00.059Z,65.22
2017-03-22T02:20:00.667Z,65.31
2017-03-22T02:21:01.275Z,65.41
2017-03-22T02:22:01.881Z,65.31
2017-03-22T02:23:02.491Z,65.22
2017-03-22T02:24:03.095Z,65.31
2017-03-22T02:25:03.702Z,65.31
2017-03-22T02:26:04.307Z,65.22
2017-03-22T02:27:04.913Z,65.22
2017-03-22T02:28:05.523Z,65.41
2017-03-22T02:29:06.126Z,65.41
2017-03-22T02:30:06.734Z,65.41
2017-03-22T02:31:07.345Z,65.41
2017-03-22T02:32:07.956Z,65.41
2017-03-22T02:33:08.560Z,65.22
2017-03-22T02:34:09.168Z,65.22
2017-03-22T02:35:09.784Z,65.41
2017-03-22T02:36:10.420Z,65.22
2017-03-22T02:37:11.033Z,65.41
2017-03-22T02:38:11.641Z,65.50
2017-03-22T02:39:12.249Z,65.22
2017-03-22T02:40:12.859Z,65.31
2017-03-22T02:41:13.460Z,64.74
2017-03-22T02:42:14.068Z,65.03
2017-03-22T02:43:14.677Z,65.31
2017-03-22T02:44:15.287Z,65.50
2017-03-22T02:45:15.891Z,65.41
2017-03-22T02:46:16.501Z,65.19
2017-03-22T02:47:17.105Z,65.94
2017-03-22T02:48:17.710Z,66.03
2017-03-22T02:49:18.326Z,65.75
2017-03-22T02:50:18.929Z,65.75
2017-03-22T02:51:19.538Z,65.47
2017-03-22T02:52:20.145Z,65.75
2017-03-22T02:53:20.757Z,66.22
2017-03-22T02:54:21.359Z,65.94
2017-03-22T02:55:21.965Z,65.56
2017-03-22T02:56:22.572Z,65.75
2017-03-22T02:57:23.182Z,65.66
2017-03-22T02:58:23.793Z,65.56
2017-03-22T02:59:24.400Z,66.13
2017-03-22T03:00:25.005Z,65.84
2017-03-22T03:01:25.610Z,65.84
2017-03-22T03:02:26.224Z,66.03
2017-03-22T03:03:26.824Z,66.13
2017-03-22T03:04:27.432Z,66.22
2017-03-22T03:05:28.037Z,65.47
2017-03-22T03:06:28.643Z,65.66
2017-03-22T03:07:29.249Z,65.84
2017-03-22T03:08:29.853Z,65.66
2017-03-22T03:09:30.465Z,65.66
2017-03-22T03:10:31.073Z,66.22
2017-03-22T03:11:31.676Z,66.22
2017-03-22T03:12:32.283Z,66.22
2017-03-22T03:13:32.943Z,65.94
2017-03-22T03:14:33.549Z,65.94
2017-03-22T03:15:34.156Z,66.03
2017-03-22T03:16:34.762Z,66.03
2017-03-22T03:17:35.374Z,66.03
2017-03-22T03:18:35.978Z,66.22
2017-03-22T03:19:36.583Z,65.94
2017-03-22T03:20:37.188Z,66.03
2017-03-22T03:21:37.794Z,66.13
2017-03-22T03:22:38.400Z,66.03
2017-03-22T03:23:39.006Z,66.22
2017-03-22T03:24:39.612Z,65.75
2017-03-22T03:25:40.217Z,65.94
2017-03-22T03:26:40.822Z,65.94
2017-03-22T03:27:41.433Z,65.94
2017-03-22T03:28:42.035Z,66.13
2017-03-22T03:29:42.642Z,65.94
2017-03-22T03:30:43.255Z,66.03
2017-03-22T03:31:43.863Z,66.22
2017-03-22T03:32:44.466Z,66.32
2017-03-22T03:33:45.073Z,66.13
2017-03-22T03:34:45.684Z,66.22
2017-03-22T03:35:46.287Z,66.22
2017-03-22T03:36:46.893Z,66.03
2017-03-22T03:37:47.504Z,65.94
2017-03-22T03:38:48.107Z,66.03
2017-03-22T03:39:48.715Z,66.22
2017-03-22T03:40:49.323Z,66.22
2017-03-22T03:41:49.929Z,66.13
2017-03-22T03:42:50.543Z,65.94
2017-03-22T03:43:51.148Z,66.41
2017-03-22T03:44:51.758Z,66.70
2017-03-22T03:45:52.362Z,66.51
2017-03-22T03:46:52.971Z,66.32
2017-03-22T03:47:53.575Z,66.41
2017-03-22T03:48:54.181Z,66.13
2017-03-22T03:49:54.793Z,66.32
2017-03-22T03:50:55.395Z,66.03
2017-03-22T03:51:56.002Z,66.22
2017-03-22T03:52:56.613Z,66.03
2017-03-22T03:53:57.217Z,66.41
2017-03-22T03:54:57.822Z,66.32
2017-03-22T03:55:58.428Z,66.03
2017-03-22T03:56:59.033Z,65.94
2017-03-22T03:57:59.645Z,66.89
2017-03-22T03:59:00.252Z,66.51
2017-03-22T04:00:00.855Z,67.08
2017-03-22T04:01:01.460Z,66.80
2017-03-22T04:02:02.068Z,66.89
2017-03-22T04:03:02.673Z,66.60
2017-03-22T04:04:03.285Z,66.80
2017-03-22T04:05:03.889Z,66.80
2017-03-22T04:06:04.496Z,67.08
2017-03-22T04:07:05.104Z,67.08
2017-03-22T04:08:05.717Z,66.89
2017-03-22T04:09:06.319Z,67.08
2017-03-22T04:10:06.924Z,67.27
2017-03-22T04:11:07.530Z,67.18
2017-03-22T04:12:08.137Z,67.18
2017-03-22T04:13:08.741Z,67.18
2017-03-22T04:14:09.354Z,67.18
2017-03-22T04:15:09.956Z,67.18
2017-03-22T04:16:10.570Z,67.08
2017-03-22T04:17:11.171Z,66.89
2017-03-22T04:18:11.775Z,66.60
2017-03-22T04:19:12.381Z,66.89
2017-03-22T04:20:12.986Z,66.22
2017-03-22T04:21:13.591Z,65.94
2017-03-22T04:22:14.196Z,66.89
2017-03-22T04:23:14.806Z,67.18
2017-03-22T04:24:15.437Z,66.89
2017-03-22T04:25:16.042Z,67.36
2017-03-22T04:26:16.648Z,67.18
2017-03-22T04:27:17.252Z,66.89
2017-03-22T04:28:17.859Z,67.08
2017-03-22T04:29:18.469Z,67.36
2017-03-22T04:30:19.080Z,67.18
2017-03-22T04:31:19.683Z,67.08
2017-03-22T04:32:20.294Z,67.18
2017-03-22T04:33:20.896Z,67.08
2017-03-22T04:34:21.502Z,67.18
2017-03-22T04:35:22.108Z,66.89
2017-03-22T04:36:22.717Z,67.18
2017-03-22T04:37:23.321Z,67.27
2017-03-22T04:38:23.926Z,67.08
2017-03-22T04:39:24.537Z,66.80
2017-03-22T04:40:25.140Z,67.27
2017-03-22T04:41:25.752Z,67.55
2017-03-22T04:42:26.358Z,67.55
2017-03-22T04:43:26.970Z,67.83
2017-03-22T04:44:27.610Z,67.55
2017-03-22T04:45:28.185Z,67.74
2017-03-22T04:46:28.793Z,67.55
2017-03-22T04:47:29.395Z,67.55
2017-03-22T04:48:30.002Z,67.65
2017-03-22T04:49:30.609Z,67.55
2017-03-22T04:50:31.216Z,67.46
2017-03-22T04:51:31.822Z,67.27
2017-03-22T04:52:32.434Z,67.65
2017-03-22T04:53:33.041Z,67.74
2017-03-22T04:54:33.644Z,67.46
2017-03-22T04:55:34.250Z,67.55
2017-03-22T04:56:34.855Z,68.02
2017-03-22T04:57:35.461Z,67.93
2017-03-22T04:58:36.067Z,68.21
2017-03-22T04:59:36.677Z,68.12
2017-03-22T05:00:37.279Z,68.31
2017-03-22T05:01:37.885Z,67.93
2017-03-22T05:02:38.490Z,68.21
2017-03-22T05:03:39.098Z,68.02
2017-03-22T05:04:39.705Z,67.99
2017-03-22T05:05:40.314Z,68.18
2017-03-22T05:06:40.926Z,68.08
2017-03-22T05:07:41.531Z,68.46
2017-03-22T05:08:42.136Z,68.56
2017-03-22T05:09:42.742Z,68.46
2017-03-22T05:10:43.399Z,68.37
2017-03-22T05:11:44.006Z,68.18
2017-03-22T05:12:44.610Z,68.46
2017-03-22T05:13:45.217Z,68.46
2017-03-22T05:14:45.824Z,68.27
2017-03-22T05:15:46.430Z,68.18
2017-03-22T05:16:47.041Z,68.18
2017-03-22T05:17:47.654Z,68.18
2017-03-22T05:18:48.259Z,68.27
2017-03-22T05:19:48.862Z,68.27
2017-03-22T05:20:49.472Z,68.37
2017-03-22T05:21:50.078Z,68.37
2017-03-22T05:22:50.685Z,68.56
2017-03-22T05:23:51.293Z,68.27
2017-03-22T05:24:51.898Z,68.84
2017-03-22T05:25:52.506Z,68.65
2017-03-22T05:26:53.113Z,68.65
2017-03-22T05:27:53.728Z,68.65
2017-03-22T05:28:54.333Z,68.75
2017-03-22T05:29:54.941Z,69.13
2017-03-22T05:30:55.550Z,69.03
2017-03-22T05:31:56.161Z,69.32
2017-03-22T05:32:56.769Z,68.94
2017-03-22T05:33:57.377Z,68.94
2017-03-22T05:34:57.984Z,68.94
2017-03-22T05:35:58.590Z,69.22
2017-03-22T05:36:59.199Z,68.84
2017-03-22T05:37:59.806Z,69.22
2017-03-22T05:39:00.422Z,68.94
2017-03-22T05:40:01.032Z,68.94
2017-03-22T05:41:01.638Z,68.94
2017-03-22T05:42:02.253Z,68.94
2017-03-22T05:43:02.865Z,68.65
2017-03-22T05:44:03.472Z,69.22
2017-03-22T05:45:04.079Z,69.03
2017-03-22T05:46:04.724Z,68.75
2017-03-22T05:47:05.330Z,68.94
2017-03-22T05:48:05.939Z,68.75
2017-03-22T05:49:06.552Z,68.65
2017-03-22T05:50:07.157Z,68.75
2017-03-22T05:51:07.772Z,68.84
2017-03-22T05:52:08.384Z,68.88
2017-03-22T05:53:08.990Z,68.79
2017-03-22T05:54:09.605Z,68.79
2017-03-22T05:55:10.211Z,68.75
2017-03-22T05:56:10.820Z,68.79
2017-03-22T05:57:11.428Z,68.69
2017-03-22T05:58:12.037Z,68.59
2017-03-22T05:59:12.644Z,68.50
2017-03-22T06:00:13.252Z,68.88
2017-03-22T06:01:13.861Z,69.26
2017-03-22T06:02:14.472Z,69.07
2017-03-22T06:03:15.081Z,68.79
2017-03-22T06:04:15.695Z,68.69
2017-03-22T06:05:16.302Z,68.79
2017-03-22T06:06:16.910Z,69.07
2017-03-22T06:07:17.517Z,68.69
2017-03-22T06:08:18.127Z,69.07
2017-03-22T06:09:18.741Z,68.69
2017-03-22T06:10:19.346Z,68.79
2017-03-22T06:11:19.955Z,68.69
2017-03-22T06:12:20.568Z,68.88
2017-03-22T06:13:21.178Z,68.59
2017-03-22T06:14:21.784Z,68.40
2017-03-22T06:15:22.396Z,68.50
2017-03-22T06:16:23.006Z,68.50
2017-03-22T06:17:23.612Z,68.40
2017-03-22T06:18:24.222Z,68.50
2017-03-22T06:19:24.833Z,68.40
2017-03-22T06:20:25.444Z,68.50
2017-03-22T06:21:26.059Z,68.21
2017-03-22T06:22:26.668Z,68.79
2017-03-22T06:23:27.279Z,68.79
2017-03-22T06:24:27.890Z,68.63
2017-03-22T06:25:28.498Z,68.82
2017-03-22T06:26:29.111Z,69.10
2017-03-22T06:27:29.724Z,68.25
2017-03-22T06:28:30.336Z,68.44
2017-03-22T06:29:30.948Z,68.25
2017-03-22T06:30:31.559Z,68.35
2017-03-22T06:31:32.170Z,68.19
2017-03-22T06:32:32.831Z,68.38
2017-03-22T06:33:33.445Z,67.90
2017-03-22T06:34:34.055Z,67.43
2017-03-22T06:35:34.668Z,67.71
2017-03-22T06:36:35.284Z,67.52
2017-03-22T06:37:35.894Z,67.43
2017-03-22T06:38:36.510Z,67.33
2017-03-22T06:39:37.126Z,67.43
2017-03-22T06:40:37.736Z,66.77
2017-03-22T06:41:38.348Z,66.86
2017-03-22T06:42:38.964Z,66.10
2017-03-22T06:43:39.577Z,66.58
2017-03-22T06:44:40.192Z,66.10
2017-03-22T06:45:40.807Z,66.58
2017-03-22T06:46:41.423Z,66.39
2017-03-22T06:47:42.030Z,67.05
2017-03-22T06:48:42.645Z,67.05
2017-03-22T06:49:43.254Z,67.24
2017-03-22T06:50:43.866Z,67.24
2017-03-22T06:51:44.477Z,67.05
2017-03-22T06:52:45.087Z,67.52
2017-03-22T06:53:45.697Z,67.43
2017-03-22T06:54:46.307Z,67.33
2017-03-22T06:55:47.024Z,67.71
2017-03-22T06:56:47.566Z,67.90
2017-03-22T06:57:48.176Z,67.62
2017-03-22T06:58:48.785Z,67.62
2017-03-22T06:59:49.394Z,67.71
2017-03-22T07:00:50.005Z,67.77
2017-03-22T07:01:50.618Z,67.96
2017-03-22T07:02:51.225Z,67.49
2017-03-22T07:03:51.835Z,67.68
2017-03-22T07:04:52.446Z,67.58
2017-03-22T07:05:53.087Z,67.49
2017-03-22T07:06:53.711Z,68.06
2017-03-22T07:07:54.342Z,68.35
2017-03-22T07:08:54.954Z,68.54
2017-03-22T07:09:55.571Z,68.35
2017-03-22T07:10:56.178Z,68.88
2017-03-22T07:11:56.788Z,68.63
2017-03-22T07:12:57.401Z,69.29
2017-03-22T07:13:58.065Z,69.20
2017-03-22T07:14:58.679Z,69.01
2017-03-22T07:15:59.286Z,69.10
2017-03-22T07:16:59.898Z,68.82
2017-03-22T07:18:00.560Z,68.63
2017-03-22T07:19:01.228Z,68.73
2017-03-22T07:20:01.841Z,68.82
2017-03-22T07:21:02.449Z,68.48
2017-03-22T07:22:03.066Z,68.38
2017-03-22T07:23:03.676Z,68.48
2017-03-22T07:24:04.290Z,68.10
2017-03-22T07:25:04.900Z,67.37
2017-03-22T07:26:05.517Z,67.56
2017-03-22T07:27:06.132Z,67.37
2017-03-22T07:28:06.742Z,66.99
2017-03-22T07:29:07.355Z,66.71
2017-03-22T07:30:07.974Z,66.71
2017-03-22T07:31:08.584Z,66.52
2017-03-22T07:32:09.203Z,66.23
2017-03-22T07:33:09.864Z,66.04
2017-03-22T07:34:10.475Z,66.61
2017-03-22T07:35:11.088Z,66.48
2017-03-22T07:36:11.701Z,66.77
2017-03-22T07:37:12.342Z,66.58
2017-03-22T07:38:12.956Z,67.18
2017-03-22T07:39:13.567Z,67.14
2017-03-22T07:40:14.179Z,67.18
2017-03-22T07:41:14.792Z,67.08
2017-03-22T07:42:15.407Z,67.18
2017-03-22T07:43:16.019Z,67.27
2017-03-22T07:44:16.632Z,67.18
2017-03-22T07:45:17.251Z,66.71
2017-03-22T07:46:17.894Z,67.12
2017-03-22T07:47:18.507Z,67.02
2017-03-22T07:48:19.118Z,66.83
2017-03-22T07:49:19.734Z,66.46
2017-03-22T07:50:20.354Z,66.67
2017-03-22T07:51:20.964Z,66.49
2017-03-22T07:52:21.578Z,66.67
2017-03-22T07:53:22.197Z,66.30
2017-03-22T07:54:22.805Z,66.20
2017-03-22T07:55:23.421Z,66.42
2017-03-22T07:56:24.034Z,65.76
2017-03-22T07:57:24.647Z,65.70
2017-03-22T07:58:25.264Z,64.94
2017-03-22T07:59:25.878Z,63.89
2017-03-22T08:00:26.492Z,64.37
2017-03-22T08:01:27.108Z,63.23
2017-03-22T08:02:27.724Z,62.56
2017-03-22T08:03:28.338Z,62.75
2017-03-22T08:04:28.953Z,63.10
2017-03-22T08:05:29.568Z,63.39
2017-03-22T08:06:30.182Z,63.67
2017-03-22T08:07:30.798Z,64.78
2017-03-22T08:08:31.413Z,64.69
2017-03-22T08:09:32.029Z,64.59
2017-03-22T08:10:32.676Z,65.54
2017-03-22T08:11:33.293Z,65.60
2017-03-22T08:12:33.910Z,66.17
2017-03-22T08:13:34.520Z,66.36
2017-03-22T08:14:35.133Z,65.79
2017-03-22T08:15:35.751Z,65.50
2017-03-22T08:16:36.365Z,66.17
2017-03-22T08:17:36.978Z,66.17
2017-03-22T08:18:37.596Z,66.08
2017-03-22T08:19:38.205Z,66.08
2017-03-22T08:20:38.823Z,66.17
2017-03-22T08:21:39.433Z,66.27
2017-03-22T08:22:40.050Z,66.36
2017-03-22T08:23:40.663Z,66.36
2017-03-22T08:24:41.275Z,66.27
2017-03-22T08:25:41.889Z,66.08
2017-03-22T08:26:42.504Z,66.17
2017-03-22T08:27:43.116Z,65.79
2017-03-22T08:28:43.732Z,66.17
2017-03-22T08:29:44.347Z,66.08
2017-03-22T08:30:44.965Z,66.08
2017-03-22T08:31:45.592Z,66.17
2017-03-22T08:32:46.189Z,66.17
2017-03-22T08:33:46.802Z,66.36
2017-03-22T08:34:47.421Z,66.55
2017-03-22T08:35:48.040Z,66.08
2017-03-22T08:36:48.650Z,66.17
2017-03-22T08:37:49.264Z,65.79
2017-03-22T08:38:49.876Z,65.98
2017-03-22T08:39:50.493Z,65.50
2017-03-22T08:40:51.104Z,65.22
2017-03-22T08:41:51.723Z,65.31
2017-03-22T08:42:52.338Z,65.41
2017-03-22T08:43:52.954Z,65.12
2017-03-22T08:44:53.599Z,65.12
2017-03-22T08:45:54.177Z,65.41
2017-03-22T08:46:54.793Z,65.88
2017-03-22T08:47:55.412Z,66.27
2017-03-22T08:48:56.062Z,66.17
2017-03-22T08:49:56.677Z,66.17
2017-03-22T08:50:57.320Z,65.98
2017-03-22T08:51:57.934Z,66.46
2017-03-22T08:52:58.548Z,66.27
2017-03-22T08:53:59.160Z,66.36
2017-03-22T08:54:59.772Z,66.08
2017-03-22T08:56:00.445Z,66.36
2017-03-22T08:57:01.057Z,66.08
2017-03-22T08:58:01.676Z,66.08
2017-03-22T08:59:02.287Z,66.08
2017-03-22T09:00:02.901Z,66.17
2017-03-22T09:01:03.513Z,66.33
2017-03-22T09:02:04.127Z,66.46
2017-03-22T09:03:04.747Z,66.74
2017-03-22T09:04:05.357Z,66.08
2017-03-22T09:05:05.968Z,67.12
2017-03-22T09:06:06.586Z,66.71
2017-03-22T09:07:07.247Z,66.93
2017-03-22T09:08:07.862Z,66.14
2017-03-22T09:09:08.489Z,67.18
2017-03-22T09:10:09.139Z,66.42
2017-03-22T09:11:09.782Z,66.42
2017-03-22T09:12:10.395Z,66.71
2017-03-22T09:13:11.009Z,67.18
2017-03-22T09:14:11.626Z,66.52
2017-03-22T09:15:12.237Z,67.08
2017-03-22T09:16:12.849Z,66.42
2017-03-22T09:17:13.462Z,66.61
2017-03-22T09:18:14.075Z,66.99
2017-03-22T09:19:14.688Z,66.42
2017-03-22T09:20:15.305Z,66.89
2017-03-22T09:21:15.968Z,66.80
2017-03-22T09:22:16.576Z,67.27
2017-03-22T09:23:17.187Z,67.24
2017-03-22T09:24:17.798Z,67.27
2017-03-22T09:25:18.442Z,67.52
2017-03-22T09:26:19.052Z,67.56
2017-03-22T09:27:19.665Z,67.90
2017-03-22T09:28:20.283Z,67.62
2017-03-22T09:29:20.889Z,67.71
2017-03-22T09:30:21.506Z,67.43
2017-03-22T09:31:22.115Z,68.00
2017-03-22T09:32:22.725Z,68.38
2017-03-22T09:33:23.343Z,68.19
2017-03-22T09:34:23.954Z,67.33
2017-03-22T09:35:24.615Z,67.52
2017-03-22T09:36:25.236Z,67.71
2017-03-22T09:37:25.843Z,67.71
2017-03-22T09:38:26.452Z,67.62
2017-03-22T09:39:27.063Z,67.33
2017-03-22T09:40:27.682Z,68.10
2017-03-22T09:41:28.291Z,68.10
2017-03-22T09:42:28.903Z,68.10
2017-03-22T09:43:29.514Z,68.48
2017-03-22T09:44:30.129Z,68.57
2017-03-22T09:45:30.738Z,68.38
2017-03-22T09:46:31.352Z,68.38
2017-03-22T09:47:31.962Z,68.29
2017-03-22T09:48:32.576Z,68.29
2017-03-22T09:49:33.187Z,68.48
2017-03-22T09:50:33.805Z,68.48
2017-03-22T09:51:34.420Z,68.48
2017-03-22T09:52:35.026Z,68.48
2017-03-22T09:53:35.639Z,68.38
2017-03-22T09:54:36.258Z,68.41
2017-03-22T09:55:36.867Z,68.51
2017-03-22T09:56:37.485Z,68.70
2017-03-22T09:57:38.099Z,68.13
2017-03-22T09:58:38.708Z,68.60
2017-03-22T09:59:39.357Z,68.13
2017-03-22T10:00:39.972Z,68.23
2017-03-22T10:01:40.596Z,68.41
2017-03-22T10:02:41.198Z,68.51
2017-03-22T10:03:41.816Z,68.41
2017-03-22T10:04:42.423Z,68.60
2017-03-22T10:05:43.037Z,68.51
2017-03-22T10:06:43.649Z,68.41
2017-03-22T10:07:44.264Z,68.32
2017-03-22T10:08:44.874Z,68.51
2017-03-22T10:09:45.493Z,68.51
2017-03-22T10:10:46.106Z,68.23
2017-03-22T10:11:46.719Z,68.13
2017-03-22T10:12:47.329Z,68.23
2017-03-22T10:13:47.942Z,68.23
2017-03-22T10:14:48.561Z,67.85
2017-03-22T10:15:49.176Z,68.13
2017-03-22T10:16:49.785Z,68.41
2017-03-22T10:17:50.401Z,68.51
2017-03-22T10:18:51.010Z,68.10
2017-03-22T10:19:51.624Z,68.48
2017-03-22T10:20:52.236Z,68.57
2017-03-22T10:21:52.848Z,68.19
2017-03-22T10:22:53.466Z,68.76
2017-03-22T10:23:54.083Z,68.85
2017-03-22T10:24:54.741Z,68.66
2017-03-22T10:25:55.353Z,68.76
2017-03-22T10:26:55.965Z,69.04
2017-03-22T10:27:56.578Z,69.13
2017-03-22T10:28:57.194Z,69.42
2017-03-22T10:29:57.802Z,69.23
2017-03-22T10:30:58.422Z,69.13
2017-03-22T10:31:59.032Z,69.08
2017-03-22T10:32:59.643Z,69.27
2017-03-22T10:34:00.255Z,69.17
2017-03-22T10:35:00.874Z,69.36
2017-03-22T10:36:01.483Z,68.98
2017-03-22T10:37:02.096Z,68.79
2017-03-22T10:38:02.710Z,68.60
2017-03-22T10:39:03.327Z,68.98
2017-03-22T10:40:03.937Z,68.89
2017-03-22T10:41:04.549Z,68.89
2017-03-22T10:42:05.166Z,69.08
2017-03-22T10:43:05.778Z,69.17
2017-03-22T10:44:06.392Z,69.36
2017-03-22T10:45:07.009Z,69.17
2017-03-22T10:46:07.619Z,69.08
2017-03-22T10:47:08.236Z,68.79
2017-03-22T10:48:08.846Z,68.98
2017-03-22T10:49:09.466Z,68.89
2017-03-22T10:50:10.075Z,68.89
2017-03-22T10:51:10.686Z,68.79
2017-03-22T10:52:11.297Z,68.89
2017-03-22T10:53:11.909Z,69.27
2017-03-22T10:54:12.520Z,69.17
2017-03-22T10:55:13.130Z,69.55
2017-03-22T10:56:13.743Z,70.21
2017-03-22T10:57:14.356Z,69.27
2017-03-22T10:58:14.968Z,69.17
2017-03-22T10:59:15.579Z,69.55
2017-03-22T11:00:16.189Z,70.21
2017-03-22T11:01:16.804Z,69.46
2017-03-22T11:02:17.411Z,70.03
2017-03-22T11:03:18.023Z,70.12
2017-03-22T11:04:18.634Z,69.93
2017-03-22T11:05:19.252Z,69.84
2017-03-22T11:06:19.860Z,70.03
2017-03-22T11:07:20.472Z,69.74
2017-03-22T11:08:21.081Z,70.31
2017-03-22T11:09:21.699Z,70.21
2017-03-22T11:10:22.312Z,70.12
2017-03-22T11:11:22.927Z,70.31
2017-03-22T11:12:23.537Z,70.31
2017-03-22T11:13:24.150Z,70.21
2017-03-22T11:14:24.762Z,70.12
2017-03-22T11:15:25.374Z,70.31
2017-03-22T11:16:25.985Z,70.21
2017-03-22T11:17:26.600Z,69.84
2017-03-22T11:18:27.209Z,70.03
2017-03-22T11:19:27.823Z,69.74
2017-03-22T11:20:28.434Z,69.84
2017-03-22T11:21:29.054Z,69.93
2017-03-22T11:22:29.658Z,70.21
2017-03-22T11:23:30.269Z,69.84
2017-03-22T11:24:30.881Z,70.03
2017-03-22T11:25:31.492Z,70.12
2017-03-22T11:26:32.112Z,70.31
2017-03-22T11:27:32.721Z,70.40
2017-03-22T11:28:33.334Z,70.21
2017-03-22T11:29:33.947Z,70.21
2017-03-22T11:30:34.560Z,70.12
2017-03-22T11:31:35.172Z,70.21
2017-03-22T11:32:35.783Z,70.21
2017-03-22T11:33:36.395Z,70.12
2017-03-22T11:34:37.007Z,70.21
2017-03-22T11:35:37.619Z,70.21
2017-03-22T11:36:38.230Z,70.31
2017-03-22T11:37:38.839Z,70.21
2017-03-22T11:38:39.451Z,70.31
2017-03-22T11:39:40.063Z,69.65
2017-03-22T11:40:40.683Z,69.84
2017-03-22T11:41:41.292Z,70.12
2017-03-22T11:42:41.953Z,70.21
2017-03-22T11:43:42.643Z,70.03
2017-03-22T11:44:43.256Z,70.31
2017-03-22T11:45:43.868Z,70.21
2017-03-22T11:46:44.481Z,70.12
2017-03-22T11:47:45.145Z,69.93
2017-03-22T11:48:45.757Z,70.12
2017-03-22T11:49:46.370Z,70.21
2017-03-22T11:50:46.983Z,70.21
2017-03-22T11:51:47.600Z,70.12
2017-03-22T11:52:48.217Z,69.93
2017-03-22T11:53:48.827Z,70.21
2017-03-22T11:54:49.439Z,69.93
2017-03-22T11:55:50.052Z,69.93
2017-03-22T11:56:50.669Z,70.12
2017-03-22T11:57:51.334Z,69.96
2017-03-22T11:58:51.948Z,70.06
2017-03-22T11:59:52.558Z,70.35
2017-03-22T12:00:53.177Z,69.87
2017-03-22T12:01:53.785Z,69.68
2017-03-22T12:02:54.396Z,69.87
2017-03-22T12:03:55.010Z,69.87
2017-03-22T12:04:55.625Z,70.44
2017-03-22T12:05:56.239Z,70.35
2017-03-22T12:06:56.848Z,70.25
2017-03-22T12:07:57.465Z,69.78
2017-03-22T12:08:58.081Z,70.44
2017-03-22T12:09:58.697Z,70.35
2017-03-22T12:10:59.313Z,69.87
2017-03-22T12:11:59.924Z,70.44
2017-03-22T12:13:00.567Z,70.35
2017-03-22T12:14:01.184Z,70.15
2017-03-22T12:15:01.834Z,69.96
2017-03-22T12:16:02.479Z,70.25
2017-03-22T12:17:03.097Z,70.25
2017-03-22T12:18:03.706Z,69.87
2017-03-22T12:19:04.324Z,70.15
2017-03-22T12:20:04.936Z,69.93
2017-03-22T12:21:05.553Z,70.06
2017-03-22T12:22:06.164Z,70.25
2017-03-22T12:23:06.776Z,70.35
2017-03-22T12:24:07.392Z,70.44
2017-03-22T12:25:08.001Z,70.54
2017-03-22T12:26:08.614Z,70.82
2017-03-22T12:27:09.228Z,70.44
2017-03-22T12:28:09.838Z,70.63
2017-03-22T12:29:10.450Z,70.06
2017-03-22T12:30:11.065Z,70.35
2017-03-22T12:31:11.678Z,70.35
2017-03-22T12:32:12.296Z,70.25
2017-03-22T12:33:12.910Z,70.35
2017-03-22T12:34:13.520Z,70.25
2017-03-22T12:35:14.139Z,69.78
2017-03-22T12:36:14.749Z,69.78
2017-03-22T12:37:15.360Z,70.15
2017-03-22T12:38:15.972Z,69.49
2017-03-22T12:39:16.636Z,69.78
2017-03-22T12:40:17.247Z,69.55
2017-03-22T12:41:17.861Z,70.03
2017-03-22T12:42:18.472Z,70.21
2017-03-22T12:43:19.084Z,70.50
2017-03-22T12:44:19.701Z,70.98
2017-03-22T12:45:20.313Z,70.78
2017-03-22T12:46:20.925Z,70.69
2017-03-22T12:47:21.543Z,71.45
2017-03-22T12:48:22.161Z,71.26
2017-03-22T12:49:22.770Z,71.26
2017-03-22T12:50:23.381Z,71.07
2017-03-22T12:51:23.997Z,71.07
2017-03-22T12:52:24.611Z,70.88
2017-03-22T12:53:25.219Z,70.59
2017-03-22T12:54:25.831Z,70.78
2017-03-22T12:55:26.456Z,70.88
2017-03-22T12:56:27.106Z,70.78
2017-03-22T12:57:27.720Z,70.78
2017-03-22T12:58:28.332Z,70.88
2017-03-22T12:59:28.948Z,71.17
2017-03-22T13:00:29.558Z,71.45